createdAt,value
2022-09-28T16:22:14.738Z,1.42
2022-09-28T16:24:41.308Z,1.00
2022-09-28T16:27:40.211Z,1.42
2022-09-28T16:30:14.567Z,0.98
2022-09-28T16:33:02.021Z,1.08
2022-09-28T16:35:40.497Z,1.35
2022-09-28T16:38:15.223Z,1.20
2022-09-28T16:40:44.267Z,1.40
2022-09-28T16:43:36.630Z,1.60
2022-09-28T16:46:13.375Z,1.23
2022-09-28T16:48:48.975Z,1.55
2022-09-28T16:51:20.272Z,1.50
2022-09-28T16:54:05.695Z,1.25
2022-09-28T16:56:34.048Z,1.15
2022-09-28T16:59:02.194Z,1.45
2022-09-28T17:01:31.353Z,1.60
2022-09-28T17:03:58.345Z,1.50
2022-09-28T17:06:25.772Z,1.45
2022-09-28T17:08:53.360Z,1.42
2022-09-28T17:11:24.636Z,1.20
2022-09-28T17:13:52.302Z,1.75
2022-09-28T17:16:49.318Z,1.25
2022-09-28T17:19:20.129Z,0.90
2022-09-28T17:21:47.161Z,1.35
2022-09-28T17:24:13.898Z,1.42
2022-09-28T17:26:43.799Z,1.92
2022-09-28T17:29:14.612Z,2.65
2022-09-28T17:31:45.424Z,2.28
2022-09-28T17:34:15.278Z,2.08
2022-09-28T17:36:43.314Z,1.55
2022-09-28T17:39:18.534Z,2.08
2022-09-28T17:41:45.713Z,1.77
2022-09-28T17:44:16.275Z,1.92
2022-09-28T17:46:49.321Z,1.52
2022-09-28T17:49:17.043Z,2.08
2022-09-28T17:51:43.784Z,1.48
2022-09-28T17:54:12.918Z,1.63
2022-09-28T17:56:39.592Z,2.10
2022-09-28T17:59:10.501Z,2.10
2022-09-28T18:01:39.229Z,1.35
2022-09-28T18:04:08.886Z,1.48
2022-09-28T18:06:37.261Z,1.70
2022-09-28T18:09:05.083Z,1.27
2022-09-28T18:11:33.293Z,1.00
2022-09-28T18:13:59.926Z,1.30
2022-09-28T18:16:28.736Z,1.27
2022-09-28T18:18:55.678Z,1.10
2022-09-28T18:21:22.295Z,1.15
2022-09-28T18:23:48.880Z,1.40
2022-09-28T18:26:16.811Z,1.50
2022-09-28T18:28:43.477Z,6.40
2022-09-28T18:31:12.672Z,5.38
2022-09-28T18:33:39.544Z,3.20
2022-09-28T18:36:07.723Z,2.50
2022-09-28T18:38:38.369Z,2.78
2022-09-28T18:41:10.535Z,2.20
2022-09-28T18:43:37.634Z,2.47
2022-09-28T18:46:11.329Z,2.70
2022-09-28T18:48:40.596Z,2.70
2022-09-28T18:51:12.045Z,2.05
2022-09-28T18:53:39.520Z,2.92
2022-09-28T18:56:08.269Z,2.00
2022-09-28T18:58:39.978Z,1.60
2022-09-28T19:04:04.666Z,1.40
2022-09-28T19:08:59.074Z,1.40
2022-09-28T19:11:25.839Z,1.40
2022-09-28T19:13:54.438Z,1.15
2022-09-28T19:16:24.180Z,1.25
2022-09-28T19:18:52.434Z,1.30
2022-09-28T19:21:19.697Z,1.40
2022-09-28T19:23:49.569Z,1.52
2022-09-28T19:26:28.011Z,1.50
2022-09-28T19:28:57.351Z,1.60
2022-09-28T19:31:24.790Z,2.60
2022-09-28T19:33:51.385Z,1.60
2022-09-28T19:36:23.266Z,1.70
2022-09-28T19:38:51.797Z,1.80
2022-09-28T19:41:43.147Z,2.17
2022-09-28T19:44:30.046Z,3.33
2022-09-28T19:47:13.029Z,1.80
2022-09-28T19:49:41.166Z,1.40
2022-09-28T19:52:16.576Z,1.48
2022-09-28T19:54:45.431Z,1.80
2022-09-28T19:57:14.163Z,1.52
2022-09-28T19:59:40.741Z,1.40
2022-09-28T20:02:10.513Z,2.10
2022-09-28T20:04:37.147Z,2.17
2022-09-28T20:07:05.233Z,2.08
2022-09-28T20:09:32.437Z,1.70
2022-09-28T20:11:58.985Z,1.27
2022-09-28T20:14:25.994Z,1.60
2022-09-28T20:16:54.951Z,1.30
2022-09-28T20:19:23.398Z,1.63
2022-09-28T20:21:50.528Z,1.52
2022-09-28T20:24:17.289Z,1.52
2022-09-28T20:26:45.839Z,1.65
2022-09-28T20:29:12.915Z,1.85
2022-09-28T20:31:39.611Z,1.60
2022-09-28T20:34:06.799Z,2.47
2022-09-28T20:36:33.708Z,1.58
2022-09-28T20:39:04.300Z,1.80
2022-09-28T20:41:35.607Z,1.90
2022-09-28T20:44:05.697Z,2.20
2022-09-28T20:46:34.023Z,2.20
2022-09-28T20:49:00.637Z,2.58
2022-09-28T20:51:27.286Z,2.58
2022-09-28T20:53:56.205Z,2.40
2022-09-28T20:56:23.811Z,2.28
2022-09-28T20:58:51.181Z,2.20
2022-09-28T21:01:24.762Z,1.77
2022-09-28T21:03:53.926Z,1.80
2022-09-28T21:06:22.389Z,1.90
2022-09-28T21:08:49.634Z,2.35
2022-09-28T21:11:21.925Z,2.50
2022-09-28T21:13:52.813Z,1.70
2022-09-28T21:16:19.662Z,1.50
2022-09-28T21:18:47.064Z,2.20
2022-09-28T21:21:15.902Z,2.53
2022-09-28T21:23:45.293Z,3.10
2022-09-28T21:26:24.420Z,2.47
2022-09-28T21:28:58.431Z,1.88
2022-09-28T21:31:29.397Z,2.35
2022-09-28T21:33:56.797Z,2.33
2022-09-28T21:36:23.443Z,2.53
2022-09-28T21:38:50.168Z,3.40
2022-09-28T21:41:16.869Z,2.53
2022-09-28T21:43:43.483Z,2.10
2022-09-28T21:46:10.224Z,2.50
2022-09-28T21:48:36.927Z,2.33
2022-09-28T21:51:06.625Z,1.92
2022-09-28T21:53:35.447Z,1.95
2022-09-28T21:56:04.043Z,2.35
2022-09-28T21:58:32.176Z,2.35
2022-09-28T22:01:03.484Z,1.60
2022-09-28T22:03:31.543Z,1.80
2022-09-28T22:05:58.452Z,2.45
2022-09-28T22:08:26.262Z,2.28
2022-09-28T22:11:01.032Z,2.60
2022-09-28T22:13:28.857Z,2.30
2022-09-28T22:15:57.830Z,2.03
2022-09-28T22:18:25.686Z,1.90
2022-09-28T22:21:00.510Z,1.80
2022-09-28T22:23:30.497Z,1.70
2022-09-28T22:26:04.481Z,1.88
2022-09-28T22:28:31.767Z,2.10
2022-09-28T22:30:58.774Z,1.95
2022-09-28T22:33:26.453Z,1.80
2022-09-28T22:35:54.949Z,2.10
2022-09-28T22:38:23.321Z,1.92
2022-09-28T22:40:55.054Z,2.47
2022-09-28T22:43:26.166Z,2.72
2022-09-28T22:46:08.213Z,2.17
2022-09-28T22:48:35.336Z,1.67
2022-09-28T22:51:03.577Z,1.60
2022-09-28T22:53:30.396Z,1.55
2022-09-28T22:55:58.695Z,1.33
2022-09-28T22:58:25.304Z,1.90
2022-09-28T23:00:52.159Z,1.95
2022-09-28T23:03:18.958Z,1.50
2022-09-28T23:05:56.142Z,1.45
2022-09-28T23:08:23.928Z,1.73
2022-09-28T23:10:51.811Z,1.30
2022-09-28T23:13:18.581Z,1.50
2022-09-28T23:15:55.140Z,1.20
2022-09-28T23:18:21.837Z,1.70
2022-09-28T23:20:59.695Z,1.55
2022-09-28T23:23:27.309Z,1.95
2022-09-28T23:25:54.684Z,1.92
2022-09-28T23:28:23.319Z,1.73
2022-09-28T23:30:51.119Z,1.63
2022-09-28T23:33:18.805Z,1.60
2022-09-28T23:35:45.691Z,1.50
2022-09-28T23:38:13.683Z,1.30
2022-09-28T23:40:41.357Z,1.73
2022-09-28T23:43:08.602Z,1.33
2022-09-28T23:45:35.220Z,1.08
2022-09-28T23:48:02.252Z,1.52
2022-09-28T23:50:28.880Z,1.70
2022-09-28T23:52:55.629Z,1.58
2022-09-28T23:55:22.333Z,1.42
2022-09-28T23:57:48.940Z,1.35
